Time;durP1;ratioP1;P1;durP2;ratioP2;P2;SDS_P1;SDS_P2;PMS_P1;PMS_P2;Temp;Humidity;BMP_temperature;BMP_pressure;BME280_temperature;BME280_humidity;BME280_pressure;Samples;Min_cycle;Max_cycle;Signal;HPM_P1;HPM_P2
2024/03/25 00:01:28;;;;;;;;;;;;;;;;;;137432;1273;22467;-79
2024/03/25 00:04:31;;;;;;;;;;;;;;;;;;137423;1273;22509;-79
2024/03/25 00:07:35;;;;;;;;;;;;;;;;;;137426;1273;22571;-79
2024/03/25 00:10:38;;;;;;;;;;;;;;;;;;137392;1273;22591;-79
2024/03/25 00:13:40;;;;;;;;;;;;;;;;;;137518;1269;22459;-79
2024/03/25 00:16:42;;;;;;;;;;;;;;;;;;137481;1273;22470;-80
2024/03/25 00:19:50;;;;;;;;;;;;;;;;;;137517;1273;22389;-80
2024/03/25 00:22:52;;;;;;;;;;;;;;;;;;137529;1270;22339;-80
2024/03/25 00:25:55;;;;;;;;;;;;;;;;;;137428;1273;22638;-80
2024/03/25 00:28:57;;;;;;;;;;;;;;;;;;137468;1273;22557;-80
2024/03/25 00:31:59;;;;;;;;;;;;;;;;;;137436;1273;22511;-79
2024/03/25 00:35:01;;;;;;;;;;;;;;;;;;137483;1273;22560;-79
2024/03/25 00:38:04;;;;;;;;;;;;;;;;;;137474;1273;22281;-80
2024/03/25 00:41:06;;;;;;;;;;;;;;;;;;137378;1273;22852;-80
2024/03/25 00:44:08;;;;;;;;;;;;;;;;;;137438;1263;23077;-80
2024/03/25 00:47:11;;;;;;;;;;;;;;;;;;137334;1273;22543;-79
2024/03/25 00:50:14;;;;;;;;;;;;;;;;;;137521;1273;22268;-80
2024/03/25 00:53:18;;;;;;;;;;;;;;;;;;137402;1273;22504;-80
2024/03/25 00:56:20;;;;;;;;;;;;;;;;;;137488;1273;23045;-81
2024/03/25 00:59:22;;;;;;;;;;;;;;;;;;137459;1273;23091;-80
2024/03/25 01:02:27;;;;;;;;;;;;;;;;;;137450;1273;22538;-82
2024/03/25 01:05:29;;;;;;;;;;;;;;;;;;137342;1273;22675;-81
2024/03/25 01:08:31;;;;;;;;;;;;;;;;;;137452;1254;22576;-80
2024/03/25 01:11:33;;;;;;;;;;;;;;;;;;137304;1273;22526;-80
2024/03/25 01:14:36;;;;;;;;;;;;;;;;;;137482;1273;22583;-80
2024/03/25 01:17:38;;;;;;;;;;;;;;;;;;137469;1273;23024;-80
2024/03/25 01:20:40;;;;;;;;;;;;;;;;;;137409;1273;22558;-81
2024/03/25 01:23:43;;;;;;;;;;;;;;;;;;137455;1273;22525;-81
2024/03/25 01:26:45;;;;;;;;;;;;;;;;;;137399;1273;22826;-87
2024/03/25 01:29:47;;;;;;;;;;;;;;;;;;137471;1273;22520;-81
2024/03/25 01:32:50;;;;;;;;;;;;;;;;;;137350;1273;22941;-82
2024/03/25 01:35:54;;;;;;;;;;;;;;;;;;137389;1273;22528;-82
2024/03/25 01:38:56;;;;;;;;;;;;;;;;;;137444;1273;22523;-80
2024/03/25 01:41:59;;;;;;;;;;;;;;;;;;137401;1273;22886;-82
2024/03/25 01:45:02;;;;;;;;;;;;;;;;;;137442;1273;22518;-82
2024/03/25 01:48:06;;;;;;;;;;;;;;;;;;137400;1273;22559;-82
2024/03/25 01:51:08;;;;;;;;;;;;;;;;;;137449;1273;22579;-81
2024/03/25 01:54:13;;;;;;;;;;;;;;;;;;137505;1273;22506;-81
2024/03/25 01:57:15;;;;;;;;;;;;;;;;;;137423;1273;22544;-82
2024/03/25 02:00:18;;;;;;;;;;;;;;;;;;137356;1273;22498;-82
2024/03/25 02:03:20;;;;;;;;;;;;;;;;;;137430;1273;22551;-82
2024/03/25 02:06:22;;;;;;;;;;;;;;;;;;137417;1273;23101;-83
2024/03/25 02:09:25;;;;;;;;;;;;;;;;;;137551;1273;22560;-81
2024/03/25 02:12:27;;;;;;;;;;;;;;;;;;137455;1273;22552;-81
2024/03/25 02:15:30;;;;;;;;;;;;;;;;;;137430;1273;22520;-82
2024/03/25 02:18:32;;;;;;;;;;;;;;;;;;137381;1270;22602;-82
2024/03/25 02:21:34;;;;;;;;;;;;;;;;;;137566;1273;22279;-80
2024/03/25 02:24:37;;;;;;;;;;;;;;;;;;137447;1273;22573;-82
2024/03/25 02:27:39;;;;;;;;;;;;;;;;;;137547;1273;22439;-83
2024/03/25 02:30:41;;;;;;;;;;;;;;;;;;137451;1273;22513;-81
2024/03/25 02:33:43;;;;;;;;;;;;;;;;;;137471;1273;22489;-82
2024/03/25 02:36:46;;;;;;;;;;;;;;;;;;137262;1273;22523;-83
2024/03/25 02:39:48;;;;;;;;;;;;;;;;;;137382;1273;22553;-83
2024/03/25 02:42:50;;;;;;;;;;;;;;;;;;137553;1273;22397;-82
2024/03/25 02:45:52;;;;;;;;;;;;;;;;;;137544;1273;22384;-82
2024/03/25 02:48:55;;;;;;;;;;;;;;;;;;137539;1273;22357;-82
2024/03/25 02:51:57;;;;;;;;;;;;;;;;;;137489;1273;22507;-82
2024/03/25 02:55:00;;;;;;;;;;;;;;;;;;137479;1273;22616;-82
2024/03/25 02:58:02;;;;;;;;;;;;;;;;;;137465;1273;22519;-82
2024/03/25 03:01:04;;;;;;;;;;;;;;;;;;137388;1273;22503;-82
2024/03/25 03:04:06;;;;;;;;;;;;;;;;;;137425;1273;22496;-82
2024/03/25 03:07:09;;;;;;;;;;;;;;;;;;137454;1273;22524;-82
2024/03/25 03:10:11;;;;;;;;;;;;;;;;;;137421;1273;22533;-80
2024/03/25 03:13:13;;;;;;;;;;;;;;;;;;137417;1273;22595;-81
2024/03/25 03:16:16;;;;;;;;;;;;;;;;;;137358;1273;22576;-82
2024/03/25 03:19:18;;;;;;;;;;;;;;;;;;137476;1273;22509;-82
2024/03/25 03:22:21;;;;;;;;;;;;;;;;;;137461;1269;22491;-81
2024/03/25 03:25:23;;;;;;;;;;;;;;;;;;137515;1267;22544;-83
2024/03/25 03:28:25;;;;;;;;;;;;;;;;;;137432;1273;22525;-83
2024/03/25 03:31:27;;;;;;;;;;;;;;;;;;137429;1269;22552;-81
2024/03/25 03:34:30;;;;;;;;;;;;;;;;;;137502;1270;22543;-82
2024/03/25 03:37:32;;;;;;;;;;;;;;;;;;137382;1273;22656;-81
2024/03/25 03:40:34;;;;;;;;;;;;;;;;;;137448;1273;22502;-82
2024/03/25 03:43:37;;;;;;;;;;;;;;;;;;137390;1273;22557;-81
2024/03/25 03:46:39;;;;;;;;;;;;;;;;;;137524;1273;22531;-79
2024/03/25 03:49:41;;;;;;;;;;;;;;;;;;137650;1273;22267;-81
2024/03/25 03:52:43;;;;;;;;;;;;;;;;;;137488;1273;22539;-79
2024/03/25 03:55:46;;;;;;;;;;;;;;;;;;137574;1273;22438;-79
2024/03/25 03:58:48;;;;;;;;;;;;;;;;;;137515;1273;22594;-79
2024/03/25 04:01:51;;;;;;;;;;;;;;;;;;137429;1273;22483;-80
2024/03/25 04:04:53;;;;;;;;;;;;;;;;;;137433;1273;22510;-80
2024/03/25 04:07:55;;;;;;;;;;;;;;;;;;137474;1273;22503;-79
2024/03/25 04:10:57;;;;;;;;;;;;;;;;;;137511;1273;22387;-80
2024/03/25 04:14:00;;;;;;;;;;;;;;;;;;137575;1273;22408;-80
2024/03/25 04:17:02;;;;;;;;;;;;;;;;;;137498;1273;22508;-79
2024/03/25 04:20:10;;;;;;;;;;;;;;;;;;137499;1273;23093;-81
2024/03/25 04:23:15;;;;;;;;;;;;;;;;;;137515;1273;22483;-82
2024/03/25 04:26:18;;;;;;;;;;;;;;;;;;137492;1273;23176;-81
2024/03/25 04:29:20;;;;;;;;;;;;;;;;;;137435;1273;22967;-85
2024/03/25 04:32:22;;;;;;;;;;;;;;;;;;137539;1273;22977;-80
2024/03/25 04:35:25;;;;;;;;;;;;;;;;;;137567;1273;22399;-81
2024/03/25 04:38:27;;;;;;;;;;;;;;;;;;137540;1272;22393;-80
2024/03/25 04:41:29;;;;;;;;;;;;;;;;;;137535;1273;22401;-81
2024/03/25 04:44:31;;;;;;;;;;;;;;;;;;137527;1272;22791;-79
2024/03/25 04:47:34;;;;;;;;;;;;;;;;;;137490;1273;22402;-79
2024/03/25 04:50:36;;;;;;;;;;;;;;;;;;137436;1273;22340;-79
2024/03/25 04:53:38;;;;;;;;;;;;;;;;;;137522;1273;22322;-80
2024/03/25 04:56:41;;;;;;;;;;;;;;;;;;137538;1273;22483;-81
2024/03/25 04:59:43;;;;;;;;;;;;;;;;;;137448;1273;22299;-80
2024/03/25 05:02:46;;;;;;;;;;;;;;;;;;137501;1270;22847;-78
2024/03/25 05:05:48;;;;;;;;;;;;;;;;;;137292;1273;22514;-78
2024/03/25 05:08:50;;;;;;;;;;;;;;;;;;137502;1273;22758;-78
2024/03/25 05:11:52;;;;;;;;;;;;;;;;;;137514;1273;22400;-78
2024/03/25 05:14:55;;;;;;;;;;;;;;;;;;137516;1273;22406;-77
2024/03/25 05:17:57;;;;;;;;;;;;;;;;;;137450;1273;22275;-76
2024/03/25 05:20:59;;;;;;;;;;;;;;;;;;137442;1273;22389;-77
2024/03/25 05:24:02;;;;;;;;;;;;;;;;;;137443;1273;22290;-77
2024/03/25 05:27:04;;;;;;;;;;;;;;;;;;137440;1273;22301;-77
2024/03/25 05:30:06;;;;;;;;;;;;;;;;;;137415;1273;22365;-77
2024/03/25 05:33:08;;;;;;;;;;;;;;;;;;137412;1273;22280;-77
2024/03/25 05:36:13;;;;;;;;;;;;;;;;;;137492;1273;22325;-77
2024/03/25 05:39:15;;;;;;;;;;;;;;;;;;137444;1273;22357;-77
2024/03/25 05:42:17;;;;;;;;;;;;;;;;;;137439;1273;22405;-77
2024/03/25 05:45:20;;;;;;;;;;;;;;;;;;137435;1271;22933;-77
2024/03/25 05:48:22;;;;;;;;;;;;;;;;;;137458;1273;22962;-77
2024/03/25 05:51:24;;;;;;;;;;;;;;;;;;137407;1273;22424;-77
2024/03/25 05:54:26;;;;;;;;;;;;;;;;;;137409;1273;22811;-77
2024/03/25 05:57:29;;;;;;;;;;;;;;;;;;137432;1261;22318;-77
2024/03/25 06:00:32;;;;;;;;;;;;;;;;;;137406;1273;22291;-77
2024/03/25 06:03:34;;;;;;;;;;;;;;;;;;137426;1270;22276;-76
2024/03/25 06:06:36;;;;;;;;;;;;;;;;;;137460;1273;22272;-78
2024/03/25 06:09:38;;;;;;;;;;;;;;;;;;137398;1273;22328;-77
2024/03/25 06:12:41;;;;;;;;;;;;;;;;;;137454;1273;22403;-78
2024/03/25 06:15:43;;;;;;;;;;;;;;;;;;137424;1273;22270;-77
2024/03/25 06:18:46;;;;;;;;;;;;;;;;;;137442;1273;22280;-77
2024/03/25 06:21:48;;;;;;;;;;;;;;;;;;137434;1273;22448;-78
2024/03/25 06:24:51;;;;;;;;;;;;;;;;;;137345;1273;22511;-77
2024/03/25 06:27:53;;;;;;;;;;;;;;;;;;137506;1273;22273;-77
2024/03/25 06:34:17;;;;;;;;;;;;;;;;;;137538;1273;22498;-77
2024/03/25 06:37:20;;;;;;;;;;;;;;;;;;137420;1273;22295;-77
2024/03/25 06:40:22;;;;;;;;;;;;;;;;;;137401;1273;22989;-77
2024/03/25 06:43:25;;;;;;;;;;;;;;;;;;137352;1273;22342;-77
2024/03/25 06:46:27;;;;;;;;;;;;;;;;;;137462;1273;22841;-78
2024/03/25 06:49:29;;;;;;;;;;;;;;;;;;137382;1272;22380;-77
2024/03/25 06:52:32;;;;;;;;;;;;;;;;;;137317;1273;22401;-77
2024/03/25 06:55:34;;;;;;;;;;;;;;;;;;137410;1265;22321;-77
2024/03/25 06:58:36;;;;;;;;;;;;;;;;;;137460;1273;22326;-77
2024/03/25 07:01:38;;;;;;;;;;;;;;;;;;137434;1273;22363;-77
2024/03/25 07:04:43;;;;;;;;;;;;;;;;;;137407;1273;22283;-77
2024/03/25 07:07:45;;;;;;;;;;;;;;;;;;137416;1273;22746;-77
2024/03/25 07:10:48;;;;;;;;;;;;;;;;;;137416;1273;22877;-76
2024/03/25 07:13:50;;;;;;;;;;;;;;;;;;137411;1273;23023;-77
2024/03/25 07:16:52;;;;;;;;;;;;;;;;;;137395;1273;22304;-77
2024/03/25 07:19:54;;;;;;;;;;;;;;;;;;137473;1264;22373;-77
2024/03/25 07:22:58;;;;;;;;;;;;;;;;;;137416;1273;22322;-77
2024/03/25 07:26:00;;;;;;;;;;;;;;;;;;137415;1273;22283;-77
2024/03/25 07:29:02;;;;;;;;;;;;;;;;;;137448;1273;22258;-78
2024/03/25 07:32:05;;;;;;;;;;;;;;;;;;137486;1261;22357;-77
2024/03/25 07:35:09;;;;;;;;;;;;;;;;;;137460;1273;22350;-78
2024/03/25 07:38:11;;;;;;;;;;;;;;;;;;137467;1273;22423;-78
2024/03/25 07:41:14;;;;;;;;;;;;;;;;;;137478;1273;22494;-78
2024/03/25 07:44:16;;;;;;;;;;;;;;;;;;137443;1268;22273;-78
2024/03/25 07:47:18;;;;;;;;;;;;;;;;;;137406;1273;22361;-79
2024/03/25 07:50:21;;;;;;;;;;;;;;;;;;137445;1273;22322;-78
2024/03/25 07:53:23;;;;;;;;;;;;;;;;;;137417;1273;22271;-77
2024/03/25 07:56:25;;;;;;;;;;;;;;;;;;137413;1273;23062;-75
2024/03/25 07:59:27;;;;;;;;;;;;;;;;;;137435;1273;22367;-78
2024/03/25 08:02:30;;;;;;;;;;;;;;;;;;137430;1273;22272;-79
2024/03/25 08:05:32;;;;;;;;;;;;;;;;;;137385;1273;22343;-77
2024/03/25 08:08:34;;;;;;;;;;;;;;;;;;137467;1273;22762;-79
2024/03/25 08:11:36;;;;;;;;;;;;;;;;;;137446;1273;22495;-79
2024/03/25 08:14:39;;;;;;;;;;;;;;;;;;137449;1273;23136;-77
2024/03/25 08:17:41;;;;;;;;;;;;;;;;;;137484;1273;22827;-78
2024/03/25 08:20:43;;;;;;;;;;;;;;;;;;137463;1273;22311;-78
2024/03/25 08:23:46;;;;;;;;;;;;;;;;;;137474;1273;22743;-78
2024/03/25 08:26:48;;;;;;;;;;;;;;;;;;137504;1273;22311;-78
2024/03/25 08:29:53;;;;;;;;;;;;;;;;;;137476;1272;22660;-79
2024/03/25 08:32:56;;;;;;;;;;;;;;;;;;137440;1273;22323;-78
2024/03/25 08:35:58;;;;;;;;;;;;;;;;;;137436;1273;23194;-78
2024/03/25 08:39:00;;;;;;;;;;;;;;;;;;137469;1273;22903;-77
2024/03/25 08:42:03;;;;;;;;;;;;;;;;;;137549;1270;22408;-77
2024/03/25 08:45:05;;;;;;;;;;;;;;;;;;137487;1273;22501;-78
2024/03/25 08:48:08;;;;;;;;;;;;;;;;;;137490;1273;22355;-77
2024/03/25 08:51:10;;;;;;;;;;;;;;;;;;137450;1273;22274;-77
2024/03/25 08:54:12;;;;;;;;;;;;;;;;;;137529;1273;22396;-78
2024/03/25 08:57:15;;;;;;;;;;;;;;;;;;137472;1273;22355;-79
2024/03/25 09:00:18;;;;;;;;;;;;;;;;;;137507;1268;22493;-77
2024/03/25 09:03:22;;;;;;;;;;;;;;;;;;137437;1273;22357;-78
2024/03/25 09:06:29;;;;;;;;;;;;;;;;;;137391;1273;22354;-78
2024/03/25 09:12:52;;;;;;;;;;;;;;;;;;137396;1270;22955;-79
2024/03/25 09:15:57;;;;;;;;;;;;;;;;;;137393;1273;22261;-78
2024/03/25 09:18:59;;;;;;;;;;;;;;;;;;137432;1273;22279;-77
2024/03/25 09:22:02;;;;;;;;;;;;;;;;;;137467;1273;22346;-77
2024/03/25 09:25:04;;;;;;;;;;;;;;;;;;137311;1273;227658;-78
2024/03/25 09:28:07;;;;;;;;;;;;;;;;;;137494;1273;22275;-78
2024/03/25 09:31:09;;;;;;;;;;;;;;;;;;137579;1273;22271;-79
2024/03/25 09:34:11;;;;;;;;;;;;;;;;;;137537;1273;22839;-78
2024/03/25 09:37:14;;;;;;;;;;;;;;;;;;137552;1273;22781;-79
2024/03/25 09:40:16;;;;;;;;;;;;;;;;;;137550;1273;22436;-80
2024/03/25 09:43:18;;;;;;;;;;;;;;;;;;137470;1273;22283;-79
2024/03/25 09:46:20;;;;;;;;;;;;;;;;;;137476;1273;22312;-83
2024/03/25 09:49:23;;;;;;;;;;;;;;;;;;137503;1273;22841;-82
2024/03/25 09:52:25;;;;;;;;;;;;;;;;;;137531;1273;22456;-82
2024/03/25 09:55:27;;;;;;;;;;;;;;;;;;137537;1273;22214;-85
2024/03/25 09:58:30;;;;;;;;;;;;;;;;;;137348;1273;22512;-83
2024/03/25 10:01:32;;;;;;;;;;;;;;;;;;137533;1273;22566;-82
2024/03/25 10:04:35;;;;;;;;;;;;;;;;;;137551;1273;22290;-81
2024/03/25 10:07:37;;;;;;;;;;;;;;;;;;137603;1273;22337;-81
2024/03/25 10:10:40;;;;;;;;;;;;;;;;;;137404;1273;22799;-81
2024/03/25 10:13:42;;;;;;;;;;;;;;;;;;137044;1273;22979;-82
2024/03/25 10:16:44;;;;;;;;;;;;;;;;;;137650;1273;22301;-79
2024/03/25 10:19:47;;;;;;;;;;;;;;;;;;137650;1273;22337;-81
2024/03/25 10:22:50;;;;;;;;;;;;;;;;;;137533;1273;22296;-83
2024/03/25 10:25:52;;;;;;;;;;;;;;;;;;137569;1273;23249;-84
2024/03/25 10:28:54;;;;;;;;;;;;;;;;;;137337;1273;22525;-84
2024/03/25 10:31:57;;;;;;;;;;;;;;;;;;137512;1273;22336;-84
2024/03/25 10:35:07;;;;;;;;;;;;;;;;;;137552;1271;22287;-83
2024/03/25 10:38:10;;;;;;;;;;;;;;;;;;137494;1273;22338;-83
2024/03/25 10:41:13;;;;;;;;;;;;;;;;;;137485;1273;22891;-85
2024/03/25 10:44:15;;;;;;;;;;;;;;;;;;137496;1273;22461;-81
2024/03/25 10:47:17;;;;;;;;;;;;;;;;;;137443;1273;22292;-80
2024/03/25 10:50:20;;;;;;;;;;;;;;;;;;137460;1273;22735;-81
2024/03/25 10:53:23;;;;;;;;;;;;;;;;;;137442;1273;23046;-82
2024/03/25 10:56:25;;;;;;;;;;;;;;;;;;137459;1273;22293;-80
2024/03/25 10:59:27;;;;;;;;;;;;;;;;;;137471;1273;22256;-79
2024/03/25 11:02:30;;;;;;;;;;;;;;;;;;137528;1273;22856;-79
2024/03/25 11:05:32;;;;;;;;;;;;;;;;;;137529;1273;22502;-79
2024/03/25 11:08:34;;;;;;;;;;;;;;;;;;137458;1273;22268;-80
2024/03/25 11:11:37;;;;;;;;;;;;;;;;;;137527;1269;22483;-80
2024/03/25 11:14:39;;;;;;;;;;;;;;;;;;137548;1273;22504;-80
2024/03/25 11:17:41;;;;;;;;;;;;;;;;;;137488;1267;22325;-80
2024/03/25 11:20:44;;;;;;;;;;;;;;;;;;137491;1273;22339;-80
2024/03/25 11:23:46;;;;;;;;;;;;;;;;;;137354;1273;22330;-81
2024/03/25 11:26:48;;;;;;;;;;;;;;;;;;137509;1273;22321;-80
2024/03/25 11:29:51;;;;;;;;;;;;;;;;;;137507;1273;22346;-80
2024/03/25 11:32:53;;;;;;;;;;;;;;;;;;137566;1260;22301;-81
2024/03/25 11:35:56;;;;;;;;;;;;;;;;;;137496;1273;22324;-79
2024/03/25 11:38:58;;;;;;;;;;;;;;;;;;137485;1262;22276;-79
2024/03/25 11:42:02;;;;;;;;;;;;;;;;;;137510;1273;22385;-79
2024/03/25 11:45:04;;;;;;;;;;;;;;;;;;137524;1273;22350;-79
2024/03/25 11:48:06;;;;;;;;;;;;;;;;;;137325;1268;22415;-80
2024/03/25 11:51:09;;;;;;;;;;;;;;;;;;137508;1273;22409;-81
2024/03/25 11:54:11;;;;;;;;;;;;;;;;;;137518;1273;22381;-81
2024/03/25 11:57:13;;;;;;;;;;;;;;;;;;137507;1273;22397;-81
2024/03/25 12:00:16;;;;;;;;;;;;;;;;;;137468;1273;22291;-80
2024/03/25 12:03:18;;;;;;;;;;;;;;;;;;137548;1273;22302;-80
2024/03/25 12:06:21;;;;;;;;;;;;;;;;;;137530;1273;22376;-79
2024/03/25 12:12:43;;;;;;;;;;;;;;;;;;137523;1273;22395;-79
2024/03/25 12:15:46;;;;;;;;;;;;;;;;;;137539;1273;22393;-81
2024/03/25 12:18:48;;;;;;;;;;;;;;;;;;137550;1273;22407;-80
2024/03/25 12:21:50;;;;;;;;;;;;;;;;;;137553;1273;22370;-78
2024/03/25 12:24:52;;;;;;;;;;;;;;;;;;137567;1273;22311;-79
2024/03/25 12:27:55;;;;;;;;;;;;;;;;;;137501;1270;22350;-80
2024/03/25 12:30:57;;;;;;;;;;;;;;;;;;137513;1273;22346;-80
2024/03/25 12:33:59;;;;;;;;;;;;;;;;;;137539;1273;22287;-80
2024/03/25 12:37:02;;;;;;;;;;;;;;;;;;137533;1272;22377;-79
2024/03/25 12:40:06;;;;;;;;;;;;;;;;;;137507;1273;22443;-80
2024/03/25 12:43:08;;;;;;;;;;;;;;;;;;137491;1273;22743;-81
2024/03/25 12:46:10;;;;;;;;;;;;;;;;;;137468;1273;22297;-81
2024/03/25 12:49:13;;;;;;;;;;;;;;;;;;137455;1273;22356;-79
2024/03/25 12:52:15;;;;;;;;;;;;;;;;;;137405;1273;22497;-80
2024/03/25 12:55:17;;;;;;;;;;;;;;;;;;137432;1273;22373;-80
2024/03/25 12:58:19;;;;;;;;;;;;;;;;;;137431;1262;22274;-81
2024/03/25 13:01:22;;;;;;;;;;;;;;;;;;137508;1273;22277;-80
2024/03/25 13:04:24;;;;;;;;;;;;;;;;;;137504;1273;22327;-81
2024/03/25 13:07:27;;;;;;;;;;;;;;;;;;137454;1273;22323;-81
2024/03/25 13:10:29;;;;;;;;;;;;;;;;;;137417;1273;22631;-80
2024/03/25 13:13:32;;;;;;;;;;;;;;;;;;137430;1273;23083;-79
2024/03/25 13:16:34;;;;;;;;;;;;;;;;;;137393;1273;22788;-79
2024/03/25 13:19:36;;;;;;;;;;;;;;;;;;137374;1273;22323;-80
2024/03/25 13:22:39;;;;;;;;;;;;;;;;;;137404;1271;22296;-81
2024/03/25 13:25:42;;;;;;;;;;;;;;;;;;137390;1271;22945;-81
2024/03/25 13:28:44;;;;;;;;;;;;;;;;;;137347;1273;22960;-81
2024/03/25 13:31:47;;;;;;;;;;;;;;;;;;137353;1273;22319;-79
2024/03/25 13:34:49;;;;;;;;;;;;;;;;;;137334;1273;22411;-81
2024/03/25 13:37:51;;;;;;;;;;;;;;;;;;137317;1273;22296;-83
2024/03/25 13:40:54;;;;;;;;;;;;;;;;;;137383;1273;22884;-82
2024/03/25 13:44:00;;;;;;;;;;;;;;;;;;137455;1273;22325;-82
2024/03/25 13:47:02;;;;;;;;;;;;;;;;;;137418;1273;22260;-81
2024/03/25 13:50:07;;;;;;;;;;;;;;;;;;137387;1273;22370;-83
2024/03/25 13:53:09;;;;;;;;;;;;;;;;;;137418;1273;22337;-81
2024/03/25 13:56:12;;;;;;;;;;;;;;;;;;137410;1273;22706;-81
2024/03/25 13:59:14;;;;;;;;;;;;;;;;;;137393;1273;22320;-81
2024/03/25 14:02:16;;;;;;;;;;;;;;;;;;137413;1273;22347;-82
2024/03/25 14:05:18;;;;;;;;;;;;;;;;;;137432;1273;22249;-79
2024/03/25 14:08:21;;;;;;;;;;;;;;;;;;137391;1273;22265;-82
2024/03/25 14:11:23;;;;;;;;;;;;;;;;;;137422;1273;22469;-82
2024/03/25 14:14:25;;;;;;;;;;;;;;;;;;137492;1273;22439;-81
2024/03/25 14:17:28;;;;;;;;;;;;;;;;;;137427;1273;22943;-83
2024/03/25 14:20:30;;;;;;;;;;;;;;;;;;137392;1273;22283;-82
2024/03/25 14:23:33;;;;;;;;;;;;;;;;;;137421;1273;22356;-82
2024/03/25 14:26:35;;;;;;;;;;;;;;;;;;137393;1273;22335;-81
2024/03/25 14:29:38;;;;;;;;;;;;;;;;;;137304;1273;22957;-82
2024/03/25 14:32:40;;;;;;;;;;;;;;;;;;137427;1273;22264;-82
2024/03/25 14:35:42;;;;;;;;;;;;;;;;;;137393;1273;22337;-82
2024/03/25 14:38:44;;;;;;;;;;;;;;;;;;137492;1273;22267;-83
2024/03/25 14:41:47;;;;;;;;;;;;;;;;;;137452;1273;22546;-83
2024/03/25 14:44:50;;;;;;;;;;;;;;;;;;137518;1273;22292;-82
2024/03/25 14:47:52;;;;;;;;;;;;;;;;;;137485;1270;22398;-82
2024/03/25 14:50:54;;;;;;;;;;;;;;;;;;137493;1273;23012;-81
2024/03/25 14:53:57;;;;;;;;;;;;;;;;;;137415;1273;22260;-82
2024/03/25 14:57:00;;;;;;;;;;;;;;;;;;137514;1273;22288;-81
2024/03/25 15:00:03;;;;;;;;;;;;;;;;;;137492;1273;22336;-81
2024/03/25 15:03:05;;;;;;;;;;;;;;;;;;137452;1273;22279;-80
2024/03/25 15:06:07;;;;;;;;;;;;;;;;;;137512;1267;22299;-81
2024/03/25 15:09:10;;;;;;;;;;;;;;;;;;137506;1273;22247;-80
2024/03/25 15:12:12;;;;;;;;;;;;;;;;;;137557;1273;22414;-82
2024/03/25 15:15:15;;;;;;;;;;;;;;;;;;137326;1273;22494;-82
2024/03/25 15:18:17;;;;;;;;;;;;;;;;;;137564;1273;22273;-82
2024/03/25 15:21:20;;;;;;;;;;;;;;;;;;137468;1273;23051;-81
2024/03/25 15:24:22;;;;;;;;;;;;;;;;;;137547;1273;22340;-82
2024/03/25 15:27:24;;;;;;;;;;;;;;;;;;137562;1273;22398;-82
2024/03/25 15:30:27;;;;;;;;;;;;;;;;;;137416;1273;22468;-80
2024/03/25 15:33:32;;;;;;;;;;;;;;;;;;137452;1273;22529;-80
2024/03/25 15:36:34;;;;;;;;;;;;;;;;;;137491;1273;22605;-80
2024/03/25 15:39:38;;;;;;;;;;;;;;;;;;137414;1273;22536;-82
2024/03/25 15:42:40;;;;;;;;;;;;;;;;;;137539;1273;22637;-83
2024/03/25 15:45:43;;;;;;;;;;;;;;;;;;137637;1273;22269;-82
2024/03/25 15:48:47;;;;;;;;;;;;;;;;;;137556;1273;22559;-82
2024/03/25 15:51:49;;;;;;;;;;;;;;;;;;137512;1273;22569;-79
2024/03/25 15:54:52;;;;;;;;;;;;;;;;;;137611;1273;22367;-81
2024/03/25 15:57:55;;;;;;;;;;;;;;;;;;137550;1273;22327;-81
2024/03/25 16:00:58;;;;;;;;;;;;;;;;;;137527;1273;22314;-81
2024/03/25 16:04:00;;;;;;;;;;;;;;;;;;137527;1273;22319;-82
2024/03/25 16:07:03;;;;;;;;;;;;;;;;;;137561;1273;22292;-82
2024/03/25 16:10:05;;;;;;;;;;;;;;;;;;137492;1273;22459;-81
2024/03/25 16:13:07;;;;;;;;;;;;;;;;;;137549;1273;22526;-81
2024/03/25 16:16:10;;;;;;;;;;;;;;;;;;137511;1273;22313;-80
2024/03/25 16:19:12;;;;;;;;;;;;;;;;;;137532;1273;22507;-84
2024/03/25 16:22:14;;;;;;;;;;;;;;;;;;137513;1273;22820;-86
2024/03/25 16:25:16;;;;;;;;;;;;;;;;;;137524;1273;22443;-83
2024/03/25 16:28:19;;;;;;;;;;;;;;;;;;137495;1273;22346;-82
2024/03/25 16:31:21;;;;;;;;;;;;;;;;;;137479;1273;22277;-82
2024/03/25 16:34:26;;;;;;;;;;;;;;;;;;137443;1273;23005;-82
2024/03/25 16:37:28;;;;;;;;;;;;;;;;;;137489;1273;22356;-81
2024/03/25 16:40:30;;;;;;;;;;;;;;;;;;137494;1273;22391;-81
2024/03/25 16:43:32;;;;;;;;;;;;;;;;;;137497;1273;22673;-82
2024/03/25 16:46:35;;;;;;;;;;;;;;;;;;137523;1273;22364;-82
2024/03/25 16:49:37;;;;;;;;;;;;;;;;;;137499;1273;22332;-84
2024/03/25 16:52:40;;;;;;;;;;;;;;;;;;137455;1273;22973;-83
2024/03/25 16:55:45;;;;;;;;;;;;;;;;;;137495;1273;22305;-84
2024/03/25 16:58:49;;;;;;;;;;;;;;;;;;137515;1273;22404;-83
2024/03/25 17:01:54;;;;;;;;;;;;;;;;;;137379;1273;22469;-83
2024/03/25 17:04:57;;;;;;;;;;;;;;;;;;137530;1271;22311;-81
2024/03/25 17:07:59;;;;;;;;;;;;;;;;;;137417;1273;22497;-81
2024/03/25 17:11:01;;;;;;;;;;;;;;;;;;137444;1273;22612;-81
2024/03/25 17:14:04;;;;;;;;;;;;;;;;;;137387;1273;22621;-81
2024/03/25 17:17:06;;;;;;;;;;;;;;;;;;137526;1273;22393;-81
2024/03/25 17:20:10;;;;;;;;;;;;;;;;;;137458;1273;22708;-81
2024/03/25 17:23:12;;;;;;;;;;;;;;;;;;137509;1273;22818;-81
2024/03/25 17:26:15;;;;;;;;;;;;;;;;;;137530;1273;22686;-82
2024/03/25 17:29:17;;;;;;;;;;;;;;;;;;137498;1262;22283;-82
2024/03/25 17:32:19;;;;;;;;;;;;;;;;;;137480;1273;22308;-82
2024/03/25 17:35:21;;;;;;;;;;;;;;;;;;137513;1273;22319;-81
2024/03/25 17:38:24;;;;;;;;;;;;;;;;;;137561;1273;22334;-81
2024/03/25 17:41:26;;;;;;;;;;;;;;;;;;137488;1273;22372;-82
2024/03/25 17:44:28;;;;;;;;;;;;;;;;;;137483;1273;22539;-78
2024/03/25 17:47:31;;;;;;;;;;;;;;;;;;137438;1273;22570;-83
2024/03/25 17:50:33;;;;;;;;;;;;;;;;;;137501;1265;22692;-83
2024/03/25 17:53:35;;;;;;;;;;;;;;;;;;137523;1273;22955;-81
2024/03/25 17:56:38;;;;;;;;;;;;;;;;;;137539;1273;22491;-82
2024/03/25 17:59:40;;;;;;;;;;;;;;;;;;137525;1273;22504;-82
2024/03/25 18:02:42;;;;;;;;;;;;;;;;;;137495;1273;22495;-81
2024/03/25 18:05:45;;;;;;;;;;;;;;;;;;137396;1273;22547;-83
2024/03/25 18:08:47;;;;;;;;;;;;;;;;;;137601;1273;22597;-83
2024/03/25 18:11:49;;;;;;;;;;;;;;;;;;137261;1273;22533;-84
2024/03/25 18:14:51;;;;;;;;;;;;;;;;;;137569;1273;22429;-85
2024/03/25 18:17:54;;;;;;;;;;;;;;;;;;137480;1273;22531;-82
2024/03/25 18:20:56;;;;;;;;;;;;;;;;;;137467;1273;22573;-83
2024/03/25 18:23:59;;;;;;;;;;;;;;;;;;137537;1273;22490;-81
2024/03/25 18:27:02;;;;;;;;;;;;;;;;;;137490;1273;22372;-84
2024/03/25 18:30:05;;;;;;;;;;;;;;;;;;137497;1273;22335;-83
2024/03/25 18:33:09;;;;;;;;;;;;;;;;;;137546;1273;22332;-84
2024/03/25 18:36:12;;;;;;;;;;;;;;;;;;137436;1273;22534;-83
2024/03/25 18:39:14;;;;;;;;;;;;;;;;;;137536;1273;22553;-84
2024/03/25 18:42:18;;;;;;;;;;;;;;;;;;137528;1273;22497;-85
2024/03/25 18:45:20;;;;;;;;;;;;;;;;;;137570;1273;22543;-82
2024/03/25 18:48:22;;;;;;;;;;;;;;;;;;137416;1273;22576;-82
2024/03/25 18:51:25;;;;;;;;;;;;;;;;;;137524;1273;22583;-83
2024/03/25 18:54:30;;;;;;;;;;;;;;;;;;137724;1273;22511;-83
2024/03/25 18:57:34;;;;;;;;;;;;;;;;;;137534;1273;22585;-82
2024/03/25 19:00:36;;;;;;;;;;;;;;;;;;137438;1273;22518;-82
2024/03/25 19:03:38;;;;;;;;;;;;;;;;;;137580;1273;22285;-82
2024/03/25 19:06:41;;;;;;;;;;;;;;;;;;137521;1273;22508;-80
2024/03/25 19:09:43;;;;;;;;;;;;;;;;;;137488;1273;23154;-80
2024/03/25 19:12:45;;;;;;;;;;;;;;;;;;137467;1273;22465;-81
2024/03/25 19:15:48;;;;;;;;;;;;;;;;;;137540;1273;22269;-82
2024/03/25 19:18:50;;;;;;;;;;;;;;;;;;137563;1273;22308;-82
2024/03/25 19:21:52;;;;;;;;;;;;;;;;;;137505;1273;22935;-81
2024/03/25 19:24:55;;;;;;;;;;;;;;;;;;137362;1273;24880;-81
2024/03/25 19:27:57;;;;;;;;;;;;;;;;;;137544;1273;22819;-83
2024/03/25 19:30:59;;;;;;;;;;;;;;;;;;137466;1273;22497;-82
2024/03/25 19:34:02;;;;;;;;;;;;;;;;;;137480;1273;22507;-82
2024/03/25 19:37:04;;;;;;;;;;;;;;;;;;137541;1273;22563;-84
2024/03/25 19:40:06;;;;;;;;;;;;;;;;;;137558;1270;22539;-82
2024/03/25 19:43:08;;;;;;;;;;;;;;;;;;137506;1273;22575;-83
2024/03/25 19:46:11;;;;;;;;;;;;;;;;;;137589;1273;22349;-81
2024/03/25 19:49:13;;;;;;;;;;;;;;;;;;137319;1273;23059;-82
2024/03/25 19:52:15;;;;;;;;;;;;;;;;;;137570;1273;22395;-82
2024/03/25 19:55:18;;;;;;;;;;;;;;;;;;137566;1273;22294;-83
2024/03/25 19:58:20;;;;;;;;;;;;;;;;;;137410;1273;22532;-82
2024/03/25 20:01:25;;;;;;;;;;;;;;;;;;137464;1273;22613;-82
2024/03/25 20:04:28;;;;;;;;;;;;;;;;;;137341;1273;22555;-82
2024/03/25 20:07:30;;;;;;;;;;;;;;;;;;137614;1273;22415;-82
2024/03/25 20:10:32;;;;;;;;;;;;;;;;;;137578;1273;22526;-82
2024/03/25 20:13:35;;;;;;;;;;;;;;;;;;137389;1273;22689;-83
2024/03/25 20:16:37;;;;;;;;;;;;;;;;;;137351;1273;22918;-82
2024/03/25 20:19:39;;;;;;;;;;;;;;;;;;137514;1273;22533;-82
2024/03/25 20:22:42;;;;;;;;;;;;;;;;;;137533;1273;22601;-83
2024/03/25 20:25:45;;;;;;;;;;;;;;;;;;137456;1273;22501;-81
2024/03/25 20:28:47;;;;;;;;;;;;;;;;;;137511;1272;22578;-81
2024/03/25 20:31:50;;;;;;;;;;;;;;;;;;137437;1273;22879;-83
2024/03/25 20:34:52;;;;;;;;;;;;;;;;;;137500;1272;22959;-81